createdAt,value
2019-02-08T00:01:31.853Z,26.70
2019-02-08T00:04:01.784Z,24.87
2019-02-08T00:06:31.647Z,26.77
2019-02-08T00:09:01.592Z,25.17
2019-02-08T00:11:33.401Z,24.97
2019-02-08T00:14:03.360Z,24.40
2019-02-08T00:16:33.394Z,25.80
2019-02-08T00:19:03.255Z,26.00
2019-02-08T00:21:33.194Z,27.20
2019-02-08T00:24:03.094Z,26.50
2019-02-08T00:26:33.075Z,25.37
2019-02-08T00:29:03.108Z,24.80
2019-02-08T00:31:33.158Z,24.13
2019-02-08T00:34:03.219Z,25.97
2019-02-08T00:36:33.236Z,23.57
2019-02-08T00:39:04.624Z,23.20
2019-02-08T00:41:36.179Z,22.10
2019-02-08T00:44:06.395Z,23.23
2019-02-08T00:46:36.437Z,24.53
2019-02-08T00:49:06.315Z,22.50
2019-02-08T00:51:36.388Z,23.70
2019-02-08T00:54:06.468Z,22.17
2019-02-08T00:56:36.394Z,22.27
2019-02-08T00:59:06.780Z,23.77
2019-02-08T01:01:36.768Z,22.93
2019-02-08T01:04:06.806Z,22.87
2019-02-08T01:06:36.792Z,23.37
2019-02-08T01:09:08.942Z,23.13
2019-02-08T01:11:38.890Z,21.93
2019-02-08T01:14:09.117Z,24.47
2019-02-08T01:16:39.144Z,21.93
2019-02-08T01:19:09.201Z,23.27
2019-02-08T01:21:39.157Z,22.10
2019-02-08T01:24:09.099Z,19.93
2019-02-08T01:26:39.006Z,20.47
2019-02-08T01:29:09.045Z,22.43
2019-02-08T01:31:39.079Z,20.87
2019-02-08T01:34:09.005Z,18.67
2019-02-08T01:36:38.970Z,22.40
2019-02-08T01:39:09.050Z,18.57
2019-02-08T01:41:38.990Z,20.10
2019-02-08T01:44:08.979Z,18.67
2019-02-08T01:46:38.850Z,19.60
2019-02-08T01:49:08.702Z,19.47
2019-02-08T01:51:38.594Z,19.80
2019-02-08T01:54:08.531Z,20.00
2019-02-08T01:56:38.421Z,18.43
2019-02-08T01:59:08.289Z,18.97
2019-02-08T02:01:38.234Z,19.43
2019-02-08T02:04:08.098Z,20.53
2019-02-08T02:06:38.041Z,19.17
2019-02-08T02:09:08.725Z,19.70
2019-02-08T02:11:38.509Z,20.10
2019-02-08T02:14:08.390Z,17.03
2019-02-08T02:16:38.336Z,19.23
2019-02-08T02:19:08.134Z,17.83
2019-02-08T02:21:38.133Z,18.73
2019-02-08T02:24:08.962Z,18.77
2019-02-08T02:26:38.958Z,17.00
2019-02-08T02:29:08.818Z,18.57
2019-02-08T02:31:38.689Z,20.00
2019-02-08T02:34:08.555Z,18.77
2019-02-08T02:36:39.456Z,18.73
2019-02-08T02:39:09.678Z,18.33
2019-02-08T02:41:39.549Z,18.23
2019-02-08T02:44:09.512Z,18.00
2019-02-08T02:46:39.515Z,17.33
2019-02-08T02:49:09.501Z,16.73
2019-02-08T02:51:39.474Z,16.20
2019-02-08T02:54:09.364Z,17.73
2019-02-08T02:56:39.230Z,16.03
2019-02-08T02:59:09.110Z,18.73
2019-02-08T03:01:39.078Z,17.30
2019-02-08T03:04:09.102Z,16.43
2019-02-08T03:06:38.989Z,15.80
2019-02-08T03:09:09.793Z,15.87
2019-02-08T03:11:39.759Z,16.10
2019-02-08T03:14:09.701Z,15.93
2019-02-08T03:16:39.718Z,16.13
2019-02-08T03:19:09.649Z,15.40
2019-02-08T03:21:39.596Z,17.00
2019-02-08T03:24:13.045Z,16.13
2019-02-08T03:26:41.146Z,15.60
2019-02-08T03:29:11.098Z,14.87
2019-02-08T03:31:40.993Z,15.40
2019-02-08T03:34:11.029Z,14.07
2019-02-08T03:36:40.899Z,16.90
2019-02-08T03:39:10.833Z,14.67
2019-02-08T03:41:40.740Z,16.37
2019-02-08T03:44:10.691Z,15.40
2019-02-08T03:46:40.715Z,15.97
2019-02-08T03:49:10.635Z,14.03
2019-02-08T03:51:40.573Z,15.53
2019-02-08T03:54:10.541Z,15.00
2019-02-08T03:56:40.319Z,14.60
2019-02-08T03:59:10.189Z,15.03
2019-02-08T04:01:40.209Z,15.23
2019-02-08T04:04:15.247Z,14.83
2019-02-08T04:06:45.094Z,15.30
2019-02-08T04:09:14.976Z,13.90
2019-02-08T04:11:44.830Z,14.40
2019-02-08T04:14:14.781Z,13.00
2019-02-08T04:16:44.761Z,14.27
2019-02-08T04:19:14.687Z,14.00
2019-02-08T04:21:44.561Z,14.97
2019-02-08T04:24:14.426Z,13.83
2019-02-08T04:26:44.523Z,14.43
2019-02-08T04:29:14.491Z,13.33
2019-02-08T04:31:44.379Z,14.00
2019-02-08T04:34:14.350Z,13.43
2019-02-08T04:36:44.276Z,15.07
2019-02-08T04:39:14.149Z,14.83
2019-02-08T04:41:44.082Z,15.40
2019-02-08T04:44:14.039Z,14.93
2019-02-08T04:46:43.891Z,13.73
2019-02-08T04:49:13.788Z,13.57
2019-02-08T04:51:43.635Z,15.13
2019-02-08T04:54:13.540Z,13.47
2019-02-08T04:56:43.460Z,13.43
2019-02-08T04:59:13.338Z,14.17
2019-02-08T05:01:43.274Z,13.97
2019-02-08T05:04:13.265Z,13.00
2019-02-08T05:06:43.310Z,14.30
2019-02-08T05:09:13.156Z,14.70
2019-02-08T05:11:43.188Z,14.00
2019-02-08T05:14:12.988Z,13.37
2019-02-08T05:16:43.085Z,12.87
2019-02-08T05:19:13.090Z,12.90
2019-02-08T05:21:43.054Z,13.10
2019-02-08T05:24:13.094Z,12.93
2019-02-08T05:26:43.027Z,12.90
2019-02-08T05:29:13.947Z,12.93
2019-02-08T05:31:43.870Z,13.57
2019-02-08T05:34:13.840Z,13.73
2019-02-08T05:36:43.757Z,13.50
2019-02-08T05:39:13.715Z,12.77
2019-02-08T05:41:43.654Z,13.33
2019-02-08T05:44:13.498Z,14.50
2019-02-08T05:46:43.448Z,13.33
2019-02-08T05:49:13.376Z,13.80
2019-02-08T05:51:43.340Z,12.90
2019-02-08T05:54:13.277Z,12.63
2019-02-08T05:56:43.262Z,13.70
2019-02-08T05:59:13.207Z,12.87
2019-02-08T06:01:43.218Z,13.17
2019-02-08T06:04:13.063Z,13.37
2019-02-08T06:06:43.004Z,13.97
2019-02-08T06:09:12.849Z,13.13
2019-02-08T06:11:42.847Z,13.53
2019-02-08T06:14:12.771Z,12.33
2019-02-08T06:16:42.697Z,13.70
2019-02-08T06:19:12.559Z,12.87
2019-02-08T06:21:42.521Z,11.93
2019-02-08T06:24:12.451Z,13.10
2019-02-08T06:26:42.394Z,12.60
2019-02-08T06:29:12.289Z,12.73
2019-02-08T06:31:42.217Z,14.33
2019-02-08T06:34:12.172Z,12.63
2019-02-08T06:36:42.165Z,15.20
2019-02-08T06:39:12.022Z,14.47
2019-02-08T06:41:41.886Z,12.77
2019-02-08T06:44:13.180Z,13.40
2019-02-08T06:46:43.244Z,12.93
2019-02-08T06:49:13.137Z,14.37
2019-02-08T06:51:43.075Z,13.47
2019-02-08T06:54:13.009Z,14.60
2019-02-08T06:57:14.077Z,16.83
2019-02-08T07:00:05.526Z,12.23
2019-02-08T07:02:48.530Z,13.33
2019-02-08T07:05:31.015Z,13.23
2019-02-08T07:08:24.026Z,14.53
2019-02-08T07:11:13.590Z,12.43
2019-02-08T07:14:02.486Z,12.43
2019-02-08T07:17:03.333Z,15.73
2019-02-08T07:19:42.622Z,13.90
2019-02-08T07:22:34.361Z,13.40
2019-02-08T07:25:19.737Z,13.30
2019-02-08T07:28:11.649Z,12.73
2019-02-08T07:30:54.846Z,11.47
2019-02-08T07:33:48.349Z,14.13
2019-02-08T07:36:32.677Z,13.33
2019-02-08T07:39:21.983Z,13.87
2019-02-08T07:42:16.711Z,12.10
2019-02-08T07:45:00.605Z,12.27
2019-02-08T07:47:38.452Z,11.33
2019-02-08T07:50:37.126Z,11.80
2019-02-08T07:53:26.027Z,13.13
2019-02-08T07:56:13.299Z,13.23
2019-02-08T07:59:02.648Z,14.73
2019-02-08T08:01:43.859Z,19.97
2019-02-08T08:04:34.449Z,18.70
2019-02-08T08:07:33.498Z,15.53
2019-02-08T08:10:25.326Z,187.90
2019-02-08T08:13:17.486Z,516.10
2019-02-08T08:16:00.023Z,459.70
2019-02-08T08:18:47.167Z,553.47
2019-02-08T08:21:45.447Z,507.40
2019-02-08T08:24:40.694Z,481.60
2019-02-08T08:27:26.419Z,449.00
2019-02-08T08:30:15.322Z,404.07
2019-02-08T08:32:52.464Z,397.07
2019-02-08T08:35:48.246Z,362.53
2019-02-08T08:38:44.636Z,351.17
2019-02-08T08:41:56.081Z,354.60
2019-02-08T08:45:25.446Z,318.00
2019-02-08T08:48:52.151Z,306.87
2019-02-08T08:51:44.684Z,295.33
2019-02-08T08:55:09.778Z,271.47
2019-02-08T08:58:14.542Z,277.97
2019-02-08T09:01:12.654Z,263.97
2019-02-08T09:04:24.605Z,274.27
2019-02-08T09:10:32.555Z,243.57
2019-02-08T09:13:47.861Z,241.90
2019-02-08T09:13:52.792Z,243.07
2019-02-08T09:16:57.891Z,222.20
2019-02-08T09:20:06.193Z,209.17
2019-02-08T09:23:20.050Z,208.60
2019-02-08T09:26:12.628Z,193.37
2019-02-08T09:29:18.354Z,197.03
2019-02-08T09:32:24.283Z,185.13
2019-02-08T09:35:28.947Z,183.57
2019-02-08T09:38:23.644Z,176.17
2019-02-08T09:41:33.158Z,167.43
2019-02-08T09:44:38.941Z,156.60
2019-02-08T09:47:44.593Z,149.87
2019-02-08T09:50:54.123Z,144.60
2019-02-08T09:53:58.242Z,141.87
2019-02-08T09:57:14.009Z,139.50
2019-02-08T10:00:08.765Z,138.10
2019-02-08T10:03:21.359Z,128.80
2019-02-08T10:06:38.584Z,131.63
2019-02-08T10:09:48.581Z,124.33
2019-02-08T10:13:04.114Z,110.93
2019-02-08T10:16:17.258Z,112.10
2019-02-08T10:19:30.483Z,113.10
2019-02-08T10:23:12.561Z,103.17
2019-02-08T10:26:12.916Z,107.93
2019-02-08T10:29:13.108Z,107.63
2019-02-08T10:32:14.424Z,103.13
2019-02-08T10:35:39.722Z,105.17
2019-02-08T10:39:08.082Z,103.30
2019-02-08T10:42:27.606Z,97.10
2019-02-08T10:45:53.193Z,93.13
2019-02-08T10:48:57.253Z,91.57
2019-02-08T10:52:20.946Z,90.57
2019-02-08T10:55:34.650Z,88.83
2019-02-08T10:58:40.053Z,92.40
2019-02-08T11:01:58.818Z,89.17
2019-02-08T11:05:24.765Z,94.07
2019-02-08T11:08:31.924Z,81.87
2019-02-08T11:11:47.847Z,79.73
2019-02-08T11:15:03.510Z,86.27
2019-02-08T11:18:19.927Z,85.03
2019-02-08T11:20:49.869Z,79.43
2019-02-08T11:23:19.877Z,85.20
2019-02-08T11:25:49.817Z,74.30
2019-02-08T11:28:19.686Z,83.33
2019-02-08T11:30:49.658Z,71.23
2019-02-08T11:33:19.705Z,70.60
2019-02-08T11:35:49.606Z,76.43
2019-02-08T11:38:20.841Z,71.47
2019-02-08T11:40:50.948Z,73.20
2019-02-08T11:43:20.938Z,71.83
2019-02-08T11:45:52.292Z,75.27
2019-02-08T11:48:22.423Z,90.53
2019-02-08T11:50:52.369Z,93.30
2019-02-08T11:53:22.668Z,93.17
2019-02-08T11:55:52.553Z,95.17
2019-02-08T11:58:22.473Z,86.97
2019-02-08T12:00:54.625Z,86.00
2019-02-08T12:03:24.613Z,87.07
2019-02-08T12:05:54.509Z,75.20
2019-02-08T12:08:24.322Z,76.67
2019-02-08T12:10:54.381Z,77.63
2019-02-08T12:13:24.350Z,75.63
2019-02-08T12:15:54.349Z,77.73
2019-02-08T12:18:24.373Z,80.70
2019-02-08T12:20:54.358Z,75.50
2019-02-08T12:23:24.374Z,87.53
2019-02-08T12:25:54.362Z,76.17
2019-02-08T12:28:25.504Z,74.00
2019-02-08T12:30:55.572Z,70.77
2019-02-08T12:33:25.565Z,75.70
2019-02-08T12:35:55.558Z,68.87
2019-02-08T12:38:25.534Z,70.30
2019-02-08T12:40:55.538Z,75.53
2019-02-08T12:43:25.525Z,62.90
2019-02-08T12:45:55.506Z,66.57
2019-02-08T12:48:25.485Z,66.67
2019-02-08T12:50:55.471Z,67.07
2019-02-08T12:53:25.431Z,71.87
2019-02-08T12:55:55.401Z,68.40
2019-02-08T12:58:26.664Z,70.53
2019-02-08T13:00:56.749Z,64.50
2019-02-08T13:03:26.781Z,65.13
2019-02-08T13:05:56.750Z,66.63
2019-02-08T13:08:26.774Z,69.27
2019-02-08T13:10:56.755Z,67.43
2019-02-08T13:13:26.753Z,69.07
2019-02-08T13:15:56.794Z,62.53
2019-02-08T13:18:26.864Z,63.10
2019-02-08T13:20:56.865Z,68.77
2019-02-08T13:23:26.833Z,65.10
2019-02-08T13:25:56.875Z,59.53
2019-02-08T13:28:26.841Z,61.40
2019-02-08T13:30:56.822Z,57.50
2019-02-08T13:33:26.882Z,57.93
2019-02-08T13:35:57.017Z,53.63
2019-02-08T13:38:27.055Z,54.73
2019-02-08T13:40:57.126Z,55.23
2019-02-08T13:43:27.115Z,50.17
2019-02-08T13:45:57.102Z,46.83
2019-02-08T13:48:27.078Z,49.07
2019-02-08T13:50:57.079Z,47.77
2019-02-08T13:53:27.052Z,51.80
2019-02-08T13:55:57.046Z,41.30
2019-02-08T13:58:27.026Z,39.80
2019-02-08T14:00:57.030Z,40.00
2019-02-08T14:03:26.926Z,44.43
2019-02-08T14:05:56.918Z,38.87
2019-02-08T14:08:26.869Z,37.63
2019-02-08T14:10:56.842Z,35.63
2019-02-08T14:13:26.731Z,36.50
2019-02-08T14:15:56.754Z,38.63
2019-02-08T14:18:26.731Z,35.73
2019-02-08T14:20:56.591Z,40.43
2019-02-08T14:23:26.465Z,35.67
2019-02-08T14:25:56.327Z,33.80
2019-02-08T14:28:26.302Z,32.47
2019-02-08T14:30:56.176Z,38.63
2019-02-08T14:33:26.128Z,36.50
2019-02-08T14:35:56.118Z,29.97
2019-02-08T14:38:26.091Z,35.07
2019-02-08T14:40:56.134Z,34.43
2019-02-08T14:43:26.072Z,32.77
2019-02-08T14:45:55.972Z,35.07
2019-02-08T14:48:25.821Z,34.40
2019-02-08T14:50:56.674Z,33.23
2019-02-08T14:53:27.751Z,30.97
2019-02-08T14:55:57.883Z,32.87
2019-02-08T14:58:28.886Z,29.87
2019-02-08T15:00:58.865Z,33.17
2019-02-08T15:03:28.748Z,29.33
2019-02-08T15:05:58.767Z,31.33
2019-02-08T15:08:28.702Z,32.53
2019-02-08T15:10:58.590Z,28.53
2019-02-08T15:13:28.449Z,29.10
2019-02-08T15:15:58.400Z,31.73
2019-02-08T15:18:28.336Z,33.13
2019-02-08T15:20:58.146Z,31.07
2019-02-08T15:23:28.011Z,28.73
2019-02-08T15:25:57.877Z,31.50
2019-02-08T15:28:27.908Z,30.57
2019-02-08T15:30:57.909Z,28.97
2019-02-08T15:33:27.925Z,30.17
2019-02-08T15:35:57.934Z,28.73
2019-02-08T15:38:28.883Z,32.13
2019-02-08T15:40:58.868Z,33.27
2019-02-08T15:43:28.981Z,27.97
2019-02-08T15:46:01.122Z,30.07
2019-02-08T15:48:31.030Z,29.50
2019-02-08T15:51:01.048Z,27.97
2019-02-08T15:53:31.054Z,26.13
2019-02-08T15:56:05.911Z,28.10
2019-02-08T15:58:35.869Z,26.63
2019-02-08T16:01:08.421Z,28.37
2019-02-08T16:03:38.298Z,23.23
2019-02-08T16:06:08.290Z,29.27
2019-02-08T16:08:38.197Z,28.80
2019-02-08T16:11:08.146Z,36.00
2019-02-08T16:13:38.141Z,24.33
2019-02-08T16:16:08.231Z,23.23
2019-02-08T16:18:38.138Z,28.47
2019-02-08T16:21:08.078Z,26.07
2019-02-08T16:23:38.100Z,25.37
2019-02-08T16:26:08.058Z,25.73
2019-02-08T16:28:37.922Z,41.17
2019-02-08T16:31:07.914Z,42.57
2019-02-08T16:33:37.850Z,39.97
2019-02-08T16:36:07.810Z,34.60
2019-02-08T16:38:38.732Z,43.43
2019-02-08T16:41:08.702Z,32.30
2019-02-08T16:43:38.759Z,32.00
2019-02-08T16:46:08.703Z,31.47
2019-02-08T16:48:38.657Z,30.10
2019-02-08T16:51:08.654Z,30.83
2019-02-08T16:53:38.706Z,30.30
2019-02-08T16:56:08.671Z,33.87
2019-02-08T16:58:38.697Z,27.30
2019-02-08T17:01:08.633Z,30.67
2019-02-08T17:03:38.507Z,31.77
2019-02-08T17:06:08.470Z,32.53
2019-02-08T17:08:38.420Z,30.53
2019-02-08T17:11:08.358Z,27.17
2019-02-08T17:16:59.740Z,23.47
2019-02-08T17:19:57.848Z,29.07
2019-02-08T17:22:40.660Z,26.30
2019-02-08T17:25:26.149Z,31.10
2019-02-08T17:28:15.123Z,26.23
2019-02-08T17:31:01.054Z,23.40
2019-02-08T17:33:43.954Z,30.00
2019-02-08T17:36:56.543Z,27.07
2019-02-08T17:39:49.751Z,24.83
2019-02-08T17:42:59.055Z,27.87
2019-02-08T17:45:35.881Z,25.67
2019-02-08T17:48:19.935Z,22.30
2019-02-08T17:51:05.423Z,22.83
2019-02-08T17:53:52.750Z,23.90
2019-02-08T17:56:35.267Z,25.13
2019-02-08T17:59:13.574Z,26.70
2019-02-08T18:02:13.849Z,23.50
2019-02-08T18:05:18.898Z,26.40
2019-02-08T18:08:00.469Z,25.47
2019-02-08T18:10:43.538Z,188.50
2019-02-08T18:14:20.658Z,357.57
2019-02-08T18:17:43.131Z,404.30
2019-02-08T18:21:37.700Z,559.80
2019-02-08T18:28:40.307Z,446.23
2019-02-08T18:32:17.426Z,423.77
2019-02-08T18:35:02.729Z,418.47
2019-02-08T18:37:53.630Z,377.90
2019-02-08T18:41:14.688Z,360.27
2019-02-08T18:48:13.168Z,339.23
2019-02-08T18:54:44.915Z,320.50
2019-02-08T19:00:46.953Z,289.73
2019-02-08T19:03:53.402Z,266.47
2019-02-08T19:07:12.360Z,279.83
2019-02-08T19:09:52.541Z,269.47
2019-02-08T19:12:31.681Z,261.00
2019-02-08T19:15:18.945Z,256.93
2019-02-08T19:18:07.219Z,227.30
2019-02-08T19:20:50.733Z,248.23
2019-02-08T19:23:40.919Z,225.37
2019-02-08T19:27:00.272Z,205.23
2019-02-08T19:30:20.477Z,195.87
2019-02-08T19:33:41.135Z,188.93
2019-02-08T19:36:52.324Z,190.23
2019-02-08T19:40:20.936Z,191.67
2019-02-08T19:43:54.654Z,183.30
2019-02-08T19:46:57.403Z,174.13
2019-02-08T19:50:02.839Z,159.73
2019-02-08T19:53:14.319Z,155.77
2019-02-08T19:56:11.484Z,155.70
2019-02-08T19:59:15.961Z,148.83
2019-02-08T20:03:05.357Z,138.63
2019-02-08T20:10:08.680Z,130.67
2019-02-08T20:13:59.852Z,134.60
2019-02-08T20:21:08.573Z,135.13
2019-02-08T20:24:42.301Z,123.13
2019-02-08T20:28:05.895Z,121.27
2019-02-08T20:31:49.778Z,118.80
2019-02-08T20:39:45.167Z,113.40
2019-02-08T20:46:10.004Z,110.27
2019-02-08T20:48:39.955Z,100.50
2019-02-08T20:51:10.038Z,100.67
2019-02-08T20:53:39.997Z,121.53
2019-02-08T20:56:10.033Z,93.50
2019-02-08T20:58:40.147Z,104.37
2019-02-08T21:01:12.428Z,98.33
2019-02-08T21:03:42.640Z,93.97
2019-02-08T21:06:12.661Z,92.53
2019-02-08T21:08:42.752Z,92.77
2019-02-08T21:11:12.705Z,97.07
2019-02-08T21:13:42.579Z,86.23
2019-02-08T21:16:12.478Z,92.87
2019-02-08T21:18:42.472Z,86.27
2019-02-08T21:21:12.585Z,82.23
2019-02-08T21:23:42.608Z,86.30
2019-02-08T21:26:12.639Z,86.23
2019-02-08T21:28:42.576Z,79.53
2019-02-08T21:31:12.604Z,83.67
2019-02-08T21:34:01.634Z,77.77
2019-02-08T21:36:38.644Z,74.27
2019-02-08T21:39:04.438Z,70.87
2019-02-08T21:41:34.468Z,70.90
2019-02-08T21:44:04.346Z,71.10
2019-02-08T21:46:34.306Z,84.33
2019-02-08T21:49:04.224Z,69.93
2019-02-08T21:51:34.090Z,69.57
2019-02-08T21:54:04.027Z,64.03
2019-02-08T21:56:34.095Z,68.67
2019-02-08T21:59:06.267Z,72.33
2019-02-08T22:01:35.698Z,70.70
2019-02-08T22:04:05.718Z,65.20
2019-02-08T22:06:35.741Z,64.53
2019-02-08T22:09:07.429Z,64.73
2019-02-08T22:11:39.086Z,62.10
2019-02-08T22:14:09.028Z,60.90
2019-02-08T22:16:38.973Z,64.10
2019-02-08T22:19:09.122Z,57.23
2019-02-08T22:21:39.081Z,63.20
2019-02-08T22:24:09.030Z,59.03
2019-02-08T22:26:38.957Z,56.97
2019-02-08T22:29:13.882Z,55.57
2019-02-08T22:31:40.547Z,60.47
2019-02-08T22:34:10.437Z,50.90
2019-02-08T22:36:40.413Z,55.23
2019-02-08T22:39:10.762Z,51.57
2019-02-08T22:41:40.763Z,57.87
2019-02-08T22:44:10.633Z,55.77
2019-02-08T22:46:40.495Z,51.17
2019-02-08T22:49:10.293Z,51.10
2019-02-08T22:51:41.982Z,53.63
2019-02-08T22:54:11.986Z,51.33
2019-02-08T22:56:41.926Z,57.53
2019-02-08T22:59:11.911Z,52.17
2019-02-08T23:01:45.953Z,47.70
2019-02-08T23:04:15.890Z,50.17
2019-02-08T23:06:45.749Z,50.00
2019-02-08T23:09:20.468Z,52.73
2019-02-08T23:11:50.359Z,46.50
2019-02-08T23:14:20.286Z,48.40
2019-02-08T23:16:50.249Z,45.87
2019-02-08T23:19:20.190Z,47.00
2019-02-08T23:21:51.134Z,50.07
2019-02-08T23:24:21.073Z,50.20
2019-02-08T23:26:51.030Z,54.03
2019-02-08T23:29:21.010Z,49.17
2019-02-08T23:31:50.963Z,47.97
2019-02-08T23:34:20.834Z,47.33
2019-02-08T23:36:50.749Z,46.43
2019-02-08T23:39:20.662Z,46.40
2019-02-08T23:41:50.534Z,48.70
2019-02-08T23:44:20.468Z,44.63
2019-02-08T23:46:50.402Z,46.23
2019-02-08T23:49:20.330Z,46.27
2019-02-08T23:51:50.379Z,44.73
2019-02-08T23:54:20.252Z,41.20
2019-02-08T23:56:50.169Z,43.70
2019-02-08T23:59:20.073Z,44.53
